CDG8808 ZSJN-ZYTL
Flight info
| Callsign | CDG8808 |
|---|---|
| Flight time | 0h 49m |
| Altitude | 29100 |
| Route | BASOV W4 HCH W173 NIXEP |
| Aircraft | B738/M-V/N |
Departure
| Time | 2026-05-05 04:06 |
|---|---|
| Airport | Jinan Yaoqiang International Airport (ZSJN) |
Arrival
| Time | 2026-05-05 04:55 |
|---|---|
| Airport | Dalian Zhoushuizi International Airport (ZYTL) |
| Time | Latitude | Longitude | Altitude | Speed | Heading |
|---|---|---|---|---|---|
| 2026-05-05 04:06 | 37.10542 | 117.31999 | 12878 ft | 385 kts | 17° |
| 2026-05-05 04:06 | 37.13099 | 117.33009 | 13477 ft | 387 kts | 17° |
| 2026-05-05 04:06 | 37.15675 | 117.34013 | 14062 ft | 388 kts | 16° |
| 2026-05-05 04:06 | 37.18257 | 117.35016 | 14595 ft | 390 kts | 16° |
| 2026-05-05 04:07 | 37.20856 | 117.36022 | 15093 ft | 392 kts | 16° |
| 2026-05-05 04:07 | 37.23471 | 117.37033 | 15592 ft | 393 kts | 15° |
| 2026-05-05 04:07 | 37.26089 | 117.38046 | 16078 ft | 395 kts | 15° |
| 2026-05-05 04:07 | 37.28718 | 117.39063 | 16552 ft | 396 kts | 15° |
| 2026-05-05 04:08 | 37.31345 | 117.40112 | 17007 ft | 397 kts | 18° |
| 2026-05-05 04:08 | 37.33788 | 117.41737 | 17465 ft | 400 kts | 34° |
| 2026-05-05 04:08 | 37.35745 | 117.44171 | 17892 ft | 405 kts | 51° |
| 2026-05-05 04:08 | 37.36781 | 117.46342 | 18177 ft | 408 kts | 63° |
| 2026-05-05 04:09 | 37.37595 | 117.49768 | 18564 ft | 413 kts | 79° |
| 2026-05-05 04:09 | 37.37666 | 117.53397 | 18930 ft | 417 kts | 90° |
| 2026-05-05 04:09 | 37.37665 | 117.57046 | 19235 ft | 418 kts | 85° |
| 2026-05-05 04:09 | 37.37938 | 117.60687 | 19547 ft | 419 kts | 80° |
| 2026-05-05 04:10 | 37.38369 | 117.64309 | 19851 ft | 420 kts | 78° |
| 2026-05-05 04:10 | 37.38692 | 117.66715 | 20046 ft | 421 kts | 78° |
| 2026-05-05 04:10 | 37.39290 | 117.71256 | 20404 ft | 423 kts | 78° |
| 2026-05-05 04:10 | 37.39444 | 117.72442 | 20495 ft | 424 kts | 78° |
| 2026-05-05 04:11 | 37.39726 | 117.74634 | 20659 ft | 425 kts | 78° |
| 2026-05-05 04:11 | 37.40195 | 117.78315 | 20924 ft | 426 kts | 78° |
| 2026-05-05 04:11 | 37.40506 | 117.80762 | 21095 ft | 427 kts | 78° |
| 2026-05-05 04:12 | 37.41002 | 117.84447 | 21348 ft | 428 kts | 77° |
| 2026-05-05 04:12 | 37.41476 | 117.87966 | 21581 ft | 430 kts | 78° |
| 2026-05-05 04:12 | 37.41956 | 117.91685 | 21815 ft | 431 kts | 78° |
| 2026-05-05 04:12 | 37.42425 | 117.95414 | 22041 ft | 433 kts | 78° |
| 2026-05-05 04:13 | 37.43043 | 118.00380 | 22330 ft | 435 kts | 78° |
| 2026-05-05 04:13 | 37.43358 | 118.02925 | 22473 ft | 435 kts | 78° |
| 2026-05-05 04:13 | 37.43824 | 118.06698 | 22679 ft | 437 kts | 78° |
| 2026-05-05 04:13 | 37.44442 | 118.11717 | 22940 ft | 438 kts | 78° |
| 2026-05-05 04:14 | 37.44751 | 118.14230 | 23066 ft | 439 kts | 78° |
| 2026-05-05 04:14 | 37.45220 | 118.18032 | 23253 ft | 440 kts | 78° |
| 2026-05-05 04:14 | 37.45689 | 118.21849 | 23433 ft | 441 kts | 78° |
| 2026-05-05 04:14 | 37.46172 | 118.25667 | 23606 ft | 442 kts | 78° |
| 2026-05-05 04:15 | 37.46659 | 118.29490 | 23774 ft | 443 kts | 78° |
| 2026-05-05 04:15 | 37.47114 | 118.33084 | 23927 ft | 444 kts | 78° |
| 2026-05-05 04:15 | 37.47599 | 118.36934 | 24084 ft | 445 kts | 78° |
| 2026-05-05 04:15 | 37.48102 | 118.40786 | 24220 ft | 446 kts | 77° |
| 2026-05-05 04:16 | 37.48611 | 118.44604 | 24352 ft | 448 kts | 77° |
| 2026-05-05 04:16 | 37.49106 | 118.48481 | 24481 ft | 449 kts | 78° |
| 2026-05-05 04:16 | 37.49594 | 118.52372 | 24608 ft | 451 kts | 78° |
| 2026-05-05 04:16 | 37.50079 | 118.56278 | 24731 ft | 452 kts | 78° |
| 2026-05-05 04:17 | 37.50563 | 118.60199 | 24850 ft | 453 kts | 78° |
| 2026-05-05 04:17 | 37.51046 | 118.64117 | 24996 ft | 453 kts | 78° |
| 2026-05-05 04:17 | 37.51529 | 118.68052 | 25116 ft | 454 kts | 78° |
| 2026-05-05 04:17 | 37.52013 | 118.71987 | 25219 ft | 455 kts | 78° |
| 2026-05-05 04:18 | 37.52471 | 118.75712 | 25318 ft | 456 kts | 78° |
| 2026-05-05 04:18 | 37.52971 | 118.79865 | 25425 ft | 458 kts | 79° |
| 2026-05-05 04:18 | 37.53334 | 118.83855 | 25523 ft | 460 kts | 82° |
| 2026-05-05 04:18 | 37.53602 | 118.87880 | 25618 ft | 461 kts | 83° |
| 2026-05-05 04:19 | 37.53859 | 118.91919 | 25712 ft | 462 kts | 82° |
| 2026-05-05 04:19 | 37.54133 | 118.95959 | 25802 ft | 463 kts | 82° |
| 2026-05-05 04:19 | 37.54416 | 119.00004 | 25890 ft | 464 kts | 82° |
| 2026-05-05 04:19 | 37.54681 | 119.03737 | 25970 ft | 465 kts | 82° |
| 2026-05-05 04:20 | 37.54971 | 119.07801 | 26054 ft | 466 kts | 82° |
| 2026-05-05 04:20 | 37.55262 | 119.11867 | 26135 ft | 467 kts | 82° |
| 2026-05-05 04:20 | 37.55581 | 119.15894 | 26214 ft | 467 kts | 81° |
| 2026-05-05 04:20 | 37.55910 | 119.19971 | 26292 ft | 468 kts | 82° |
| 2026-05-05 04:21 | 37.56179 | 119.23589 | 26360 ft | 469 kts | 82° |
| 2026-05-05 04:21 | 37.56472 | 119.27684 | 26433 ft | 470 kts | 82° |
| 2026-05-05 04:21 | 37.56760 | 119.31790 | 26505 ft | 471 kts | 82° |
| 2026-05-05 04:21 | 37.57046 | 119.35906 | 26575 ft | 471 kts | 82° |
| 2026-05-05 04:22 | 37.57332 | 119.40030 | 26644 ft | 472 kts | 82° |
| 2026-05-05 04:22 | 37.57616 | 119.44152 | 26736 ft | 472 kts | 83° |
| 2026-05-05 04:22 | 37.57901 | 119.48277 | 26805 ft | 473 kts | 83° |
| 2026-05-05 04:22 | 37.58187 | 119.52411 | 26866 ft | 473 kts | 83° |
| 2026-05-05 04:23 | 37.58465 | 119.56547 | 26929 ft | 474 kts | 83° |
| 2026-05-05 04:23 | 37.58734 | 119.60644 | 26989 ft | 475 kts | 83° |
| 2026-05-05 04:23 | 37.59006 | 119.64799 | 27049 ft | 475 kts | 83° |
| 2026-05-05 04:23 | 37.59305 | 119.68951 | 27107 ft | 475 kts | 82° |
| 2026-05-05 04:24 | 37.59618 | 119.73113 | 27163 ft | 476 kts | 82° |
| 2026-05-05 04:24 | 37.59928 | 119.77275 | 27219 ft | 476 kts | 82° |
| 2026-05-05 04:24 | 37.60235 | 119.81438 | 27272 ft | 477 kts | 82° |
| 2026-05-05 04:25 | 37.60845 | 119.89785 | 27691 ft | 480 kts | 82° |
| 2026-05-05 04:25 | 37.61147 | 119.93942 | 28072 ft | 480 kts | 82° |
| 2026-05-05 04:25 | 37.61450 | 119.98132 | 28542 ft | 479 kts | 83° |
| 2026-05-05 04:25 | 37.61752 | 120.02321 | 28930 ft | 480 kts | 83° |
| 2026-05-05 04:26 | 37.62054 | 120.06530 | 29020 ft | 482 kts | 83° |
| 2026-05-05 04:26 | 37.62690 | 120.14948 | 29051 ft | 480 kts | 82° |
| 2026-05-05 04:27 | 37.63330 | 120.23094 | 29053 ft | 478 kts | 83° |
| 2026-05-05 04:27 | 37.63920 | 120.31456 | 29053 ft | 478 kts | 83° |
| 2026-05-05 04:28 | 37.64496 | 120.39822 | 29053 ft | 478 kts | 83° |
| 2026-05-05 04:28 | 37.64782 | 120.44000 | 28905 ft | 478 kts | 83° |
| 2026-05-05 04:28 | 37.65198 | 120.48159 | 28649 ft | 475 kts | 75° |
| 2026-05-05 04:28 | 37.66314 | 120.52058 | 28398 ft | 470 kts | 60° |
| 2026-05-05 04:29 | 37.68152 | 120.55429 | 28149 ft | 464 kts | 45° |
| 2026-05-05 04:29 | 37.70546 | 120.58117 | 27933 ft | 459 kts | 33° |
| 2026-05-05 04:29 | 37.73176 | 120.60308 | 27923 ft | 458 kts | 28° |
| 2026-05-05 04:29 | 37.75936 | 120.62304 | 27899 ft | 457 kts | 26° |
| 2026-05-05 04:30 | 37.78705 | 120.64267 | 27801 ft | 457 kts | 27° |
| 2026-05-05 04:30 | 37.81463 | 120.66277 | 27463 ft | 454 kts | 27° |
| 2026-05-05 04:30 | 37.84183 | 120.68282 | 27213 ft | 451 kts | 28° |
| 2026-05-05 04:30 | 37.86886 | 120.70285 | 26962 ft | 449 kts | 28° |
| 2026-05-05 04:31 | 37.89574 | 120.72282 | 26712 ft | 447 kts | 28° |
| 2026-05-05 04:31 | 37.92257 | 120.74278 | 26461 ft | 445 kts | 28° |
| 2026-05-05 04:31 | 37.94920 | 120.76260 | 26210 ft | 443 kts | 28° |
| 2026-05-05 04:31 | 37.97504 | 120.78183 | 25966 ft | 442 kts | 28° |
| 2026-05-05 04:32 | 38.00147 | 120.80152 | 25716 ft | 440 kts | 28° |
| 2026-05-05 04:32 | 38.02781 | 120.82112 | 25465 ft | 438 kts | 28° |
| 2026-05-05 04:32 | 38.05331 | 120.84015 | 25222 ft | 436 kts | 28° |
| 2026-05-05 04:32 | 38.07908 | 120.85947 | 24975 ft | 434 kts | 28° |
| 2026-05-05 04:33 | 38.10502 | 120.87897 | 24725 ft | 433 kts | 28° |
| 2026-05-05 04:33 | 38.13084 | 120.89842 | 24474 ft | 431 kts | 29° |
| 2026-05-05 04:33 | 38.15657 | 120.91782 | 24224 ft | 429 kts | 29° |
| 2026-05-05 04:33 | 38.18217 | 120.93713 | 23835 ft | 424 kts | 29° |
| 2026-05-05 04:34 | 38.20743 | 120.95619 | 23262 ft | 420 kts | 29° |
| 2026-05-05 04:34 | 38.23140 | 120.97735 | 22682 ft | 419 kts | 38° |
| 2026-05-05 04:34 | 38.25134 | 121.00424 | 22113 ft | 419 kts | 50° |
| 2026-05-05 04:34 | 38.26693 | 121.03554 | 21506 ft | 419 kts | 59° |
| 2026-05-05 04:35 | 38.27959 | 121.06890 | 20917 ft | 418 kts | 64° |
| 2026-05-05 04:35 | 38.29103 | 121.10280 | 20334 ft | 415 kts | 65° |
| 2026-05-05 04:35 | 38.30245 | 121.13651 | 19754 ft | 413 kts | 65° |
| 2026-05-05 04:35 | 38.31386 | 121.16991 | 19176 ft | 411 kts | 65° |
| 2026-05-05 04:36 | 38.32467 | 121.20143 | 18625 ft | 409 kts | 65° |
| 2026-05-05 04:36 | 38.33605 | 121.23454 | 18048 ft | 407 kts | 65° |
| 2026-05-05 04:36 | 38.34736 | 121.26742 | 17476 ft | 404 kts | 65° |
| 2026-05-05 04:36 | 38.35818 | 121.29889 | 16974 ft | 401 kts | 65° |
| 2026-05-05 04:37 | 38.36934 | 121.33137 | 16425 ft | 399 kts | 65° |
| 2026-05-05 04:37 | 38.38042 | 121.36361 | 15870 ft | 396 kts | 65° |
| 2026-05-05 04:37 | 38.39147 | 121.39578 | 15314 ft | 394 kts | 65° |
| 2026-05-05 04:37 | 38.40370 | 121.42683 | 14754 ft | 391 kts | 56° |
| 2026-05-05 04:38 | 38.42159 | 121.45248 | 14226 ft | 385 kts | 38° |
| 2026-05-05 04:38 | 38.44385 | 121.47006 | 13560 ft | 384 kts | 22° |
| 2026-05-05 04:38 | 38.46903 | 121.48081 | 13006 ft | 379 kts | 13° |
| 2026-05-05 04:38 | 38.49449 | 121.48881 | 12455 ft | 375 kts | 13° |
| 2026-05-05 04:39 | 38.51960 | 121.49774 | 11897 ft | 373 kts | 15° |
| 2026-05-05 04:39 | 38.54446 | 121.50686 | 11343 ft | 370 kts | 15° |
| 2026-05-05 04:39 | 38.56905 | 121.51593 | 10800 ft | 366 kts | 15° |
| 2026-05-05 04:39 | 38.59343 | 121.52497 | 10373 ft | 360 kts | 16° |
| 2026-05-05 04:40 | 38.61593 | 121.53336 | 10331 ft | 344 kts | 16° |
| 2026-05-05 04:40 | 38.63742 | 121.54141 | 10261 ft | 330 kts | 16° |
| 2026-05-05 04:40 | 38.65951 | 121.54969 | 10181 ft | 317 kts | 16° |
| 2026-05-05 04:40 | 38.68028 | 121.55749 | 10102 ft | 305 kts | 16° |
| 2026-05-05 04:41 | 38.70028 | 121.56501 | 10011 ft | 295 kts | 16° |
| 2026-05-05 04:41 | 38.71984 | 121.57237 | 9760 ft | 290 kts | 16° |
| 2026-05-05 04:41 | 38.73872 | 121.57947 | 9510 ft | 281 kts | 15° |
| 2026-05-05 04:41 | 38.75734 | 121.58648 | 9260 ft | 277 kts | 15° |
| 2026-05-05 04:42 | 38.77574 | 121.59342 | 9009 ft | 274 kts | 15° |
| 2026-05-05 04:42 | 38.79390 | 121.60026 | 8759 ft | 270 kts | 15° |
| 2026-05-05 04:42 | 38.81156 | 121.60692 | 8701 ft | 258 kts | 15° |
| 2026-05-05 04:42 | 38.82834 | 121.61324 | 8617 ft | 246 kts | 15° |
| 2026-05-05 04:43 | 38.84436 | 121.61935 | 8533 ft | 234 kts | 17° |
| 2026-05-05 04:43 | 38.85789 | 121.62984 | 8380 ft | 230 kts | 49° |
| 2026-05-05 04:43 | 38.86429 | 121.64819 | 8475 ft | 225 kts | 76° |
| 2026-05-05 04:43 | 38.86519 | 121.66805 | 8302 ft | 219 kts | 90° |
| 2026-05-05 04:44 | 38.86432 | 121.68547 | 8202 ft | 208 kts | 94° |
| 2026-05-05 04:44 | 38.86269 | 121.70337 | 8037 ft | 198 kts | 95° |
| 2026-05-05 04:44 | 38.86106 | 121.72078 | 7706 ft | 197 kts | 95° |
| 2026-05-05 04:44 | 38.85950 | 121.73803 | 7350 ft | 198 kts | 94° |
| 2026-05-05 04:45 | 38.85795 | 121.75557 | 7002 ft | 198 kts | 94° |
| 2026-05-05 04:45 | 38.85643 | 121.77314 | 6657 ft | 198 kts | 94° |
| 2026-05-05 04:45 | 38.85492 | 121.79071 | 6315 ft | 198 kts | 94° |
| 2026-05-05 04:45 | 38.85341 | 121.80837 | 5967 ft | 199 kts | 95° |
| 2026-05-05 04:46 | 38.85191 | 121.82596 | 5737 ft | 198 kts | 95° |
| 2026-05-05 04:46 | 38.85042 | 121.84354 | 5528 ft | 197 kts | 95° |
| 2026-05-05 04:46 | 38.85057 | 121.86110 | 5297 ft | 197 kts | 75° |
| 2026-05-05 04:46 | 38.85740 | 121.87546 | 5096 ft | 188 kts | 35° |
| 2026-05-05 04:47 | 38.86899 | 121.88283 | 4818 ft | 185 kts | 13° |
| 2026-05-05 04:47 | 38.88149 | 121.88616 | 4490 ft | 182 kts | 3° |
| 2026-05-05 04:47 | 38.89407 | 121.88785 | 4318 ft | 186 kts | 360° |
| 2026-05-05 04:47 | 38.90580 | 121.88895 | 4071 ft | 182 kts | 354° |
| 2026-05-05 04:48 | 38.91740 | 121.88512 | 3911 ft | 165 kts | 333° |
| 2026-05-05 04:48 | 38.92801 | 121.88246 | 3812 ft | 168 kts | 356° |
| 2026-05-05 04:48 | 38.93956 | 121.88305 | 3780 ft | 166 kts | 345° |
| 2026-05-05 04:48 | 38.94824 | 121.87515 | 3747 ft | 159 kts | 293° |
| 2026-05-05 04:49 | 38.94908 | 121.86134 | 3889 ft | 158 kts | 262° |
| 2026-05-05 04:49 | 38.94801 | 121.84702 | 3953 ft | 164 kts | 265° |
| 2026-05-05 04:49 | 38.94753 | 121.83238 | 3927 ft | 163 kts | 268° |
| 2026-05-05 04:49 | 38.94754 | 121.81795 | 3802 ft | 159 kts | 269° |
| 2026-05-05 04:50 | 38.94765 | 121.80860 | 3595 ft | 157 kts | 268° |
| 2026-05-05 04:50 | 38.94735 | 121.79001 | 3339 ft | 157 kts | 267° |
| 2026-05-05 04:50 | 38.94778 | 121.77592 | 3297 ft | 158 kts | 270° |
| 2026-05-05 04:50 | 38.94840 | 121.76647 | 3289 ft | 155 kts | 271° |
| 2026-05-05 04:51 | 38.94857 | 121.76407 | 3277 ft | 155 kts | 272° |
| 2026-05-05 04:51 | 38.95026 | 121.74953 | 2754 ft | 172 kts | 274° |
| 2026-05-05 04:51 | 38.95181 | 121.73411 | 2409 ft | 173 kts | 270° |
| 2026-05-05 04:52 | 38.95295 | 121.71882 | 2115 ft | 173 kts | 270° |
| 2026-05-05 04:52 | 38.95407 | 121.70349 | 1851 ft | 170 kts | 269° |
| 2026-05-05 04:52 | 38.95588 | 121.68888 | 1601 ft | 161 kts | 269° |
| 2026-05-05 04:52 | 38.95766 | 121.67494 | 1371 ft | 155 kts | 268° |
| 2026-05-05 04:53 | 38.95810 | 121.66230 | 1180 ft | 146 kts | 259° |
| 2026-05-05 04:53 | 38.95812 | 121.64954 | 1003 ft | 148 kts | 260° |
| 2026-05-05 04:53 | 38.95862 | 121.63605 | 954 ft | 152 kts | 264° |
| 2026-05-05 04:53 | 38.95957 | 121.62245 | 982 ft | 153 kts | 265° |
| 2026-05-05 04:54 | 38.96031 | 121.60869 | 931 ft | 156 kts | 265° |
| 2026-05-05 04:54 | 38.96133 | 121.59471 | 834 ft | 159 kts | 268° |
| 2026-05-05 04:54 | 38.96241 | 121.58012 | 575 ft | 168 kts | 271° |
| 2026-05-05 04:54 | 38.96352 | 121.56517 | 352 ft | 167 kts | 274° |
| 2026-05-05 04:55 | 38.96467 | 121.55056 | 128 ft | 165 kts | 273° |
| 2026-05-05 04:55 | 38.96568 | 121.53603 | 119 ft | 166 kts | 273° |
| 2026-05-05 04:55 | 38.96650 | 121.52296 | 115 ft | 107 kts | 284° |
| 2026-05-05 04:55 | 38.96675 | 121.51949 | 115 ft | 9 kts | 195° |
| 2026-05-05 04:56 | 38.96607 | 121.51949 | 115 ft | 10 kts | 183° |
| 2026-05-05 04:56 | 38.96536 | 121.51946 | 115 ft | 10 kts | 165° |
| 2026-05-05 04:56 | 38.96501 | 121.52018 | 115 ft | 11 kts | 96° |
| 2026-05-05 04:56 | 38.96492 | 121.52133 | 115 ft | 15 kts | 96° |
| 2026-05-05 04:57 | 38.96481 | 121.52276 | 115 ft | 17 kts | 96° |
| 2026-05-05 04:57 | 38.96473 | 121.52376 | 115 ft | 14 kts | 96° |
| 2026-05-05 04:57 | 38.96433 | 121.52421 | 115 ft | 4 kts | 186° |
| 2026-05-05 04:57 | 38.96416 | 121.52413 | 115 ft | 4 kts | 214° |
| 2026-05-05 04:58 | 38.96405 | 121.52368 | 115 ft | 4 kts | 276° |
| 2026-05-05 04:58 | 38.96406 | 121.52353 | 115 ft | 0 kts | 276° |